sensor_id;sensor_type;location;lat;lon;timestamp;pressure;altitude;pressure_sealevel;temperature;humidity
804;BME280;25687;49.976;8.240;2023-05-23T00:01:08;99947.94;;;17.80;100.00
804;BME280;25687;49.976;8.240;2023-05-23T00:03:33;99950.84;;;17.86;100.00
804;BME280;25687;49.976;8.240;2023-05-23T00:06:00;99948.91;;;17.79;100.00
804;BME280;25687;49.976;8.240;2023-05-23T00:08:26;99949.44;;;17.82;100.00
804;BME280;25687;49.976;8.240;2023-05-23T00:10:51;99946.03;;;17.82;100.00
804;BME280;25687;49.976;8.240;2023-05-23T00:13:16;99944.38;;;17.71;100.00
804;BME280;25687;49.976;8.240;2023-05-23T00:15:43;99951.50;;;17.69;100.00
804;BME280;25687;49.976;8.240;2023-05-23T00:18:09;99941.91;;;17.69;100.00
804;BME280;25687;49.976;8.240;2023-05-23T00:20:40;99948.44;;;17.64;100.00
804;BME280;25687;49.976;8.240;2023-05-23T00:23:07;99956.38;;;17.62;100.00
804;BME280;25687;49.976;8.240;2023-05-23T00:25:34;99954.34;;;17.66;100.00
804;BME280;25687;49.976;8.240;2023-05-23T00:28:00;99955.16;;;17.56;100.00
804;BME280;25687;49.976;8.240;2023-05-23T00:30:26;99951.16;;;17.52;100.00
804;BME280;25687;49.976;8.240;2023-05-23T00:32:52;99953.53;;;17.65;100.00
804;BME280;25687;49.976;8.240;2023-05-23T00:35:19;99952.59;;;17.66;100.00
804;BME280;25687;49.976;8.240;2023-05-23T00:37:44;99952.13;;;17.61;100.00
804;BME280;25687;49.976;8.240;2023-05-23T00:40:09;99955.19;;;17.66;100.00
804;BME280;25687;49.976;8.240;2023-05-23T00:42:35;99954.34;;;17.66;100.00
804;BME280;25687;49.976;8.240;2023-05-23T00:45:00;99959.66;;;17.54;100.00
804;BME280;25687;49.976;8.240;2023-05-23T00:47:25;99961.44;;;17.54;100.00
804;BME280;25687;49.976;8.240;2023-05-23T00:49:51;99965.00;;;17.53;100.00
804;BME280;25687;49.976;8.240;2023-05-23T00:52:16;99965.97;;;17.62;100.00
804;BME280;25687;49.976;8.240;2023-05-23T00:54:41;99961.91;;;17.69;100.00
804;BME280;25687;49.976;8.240;2023-05-23T00:57:06;99972.16;;;17.70;100.00
804;BME280;25687;49.976;8.240;2023-05-23T00:59:32;99979.56;;;17.85;100.00
804;BME280;25687;49.976;8.240;2023-05-23T01:01:57;99971.50;;;17.78;100.00
804;BME280;25687;49.976;8.240;2023-05-23T01:04:24;99974.22;;;17.67;100.00
804;BME280;25687;49.976;8.240;2023-05-23T01:06:55;99976.09;;;17.65;100.00
804;BME280;25687;49.976;8.240;2023-05-23T01:09:22;99979.56;;;17.65;100.00
804;BME280;25687;49.976;8.240;2023-05-23T01:12:01;99977.06;;;17.64;100.00
804;BME280;25687;49.976;8.240;2023-05-23T01:14:43;99981.03;;;17.58;100.00
804;BME280;25687;49.976;8.240;2023-05-23T01:17:16;99980.31;;;17.56;100.00
804;BME280;25687;49.976;8.240;2023-05-23T01:19:53;99976.78;;;17.57;100.00
804;BME280;25687;49.976;8.240;2023-05-23T01:22:47;99974.34;;;17.65;100.00
804;BME280;25687;49.976;8.240;2023-05-23T01:28:31;99973.75;;;17.52;100.00
804;BME280;25687;49.976;8.240;2023-05-23T01:30:57;99970.03;;;17.45;100.00
804;BME280;25687;49.976;8.240;2023-05-23T01:33:26;99975.63;;;17.40;100.00
804;BME280;25687;49.976;8.240;2023-05-23T01:35:55;99973.81;;;17.31;100.00
804;BME280;25687;49.976;8.240;2023-05-23T01:38:21;99967.88;;;17.19;100.00
804;BME280;25687;49.976;8.240;2023-05-23T01:40:46;99973.72;;;17.11;100.00
804;BME280;25687;49.976;8.240;2023-05-23T01:43:12;99970.69;;;17.06;100.00
804;BME280;25687;49.976;8.240;2023-05-23T01:45:37;99973.22;;;16.96;100.00
804;BME280;25687;49.976;8.240;2023-05-23T01:48:03;99970.88;;;16.93;100.00
804;BME280;25687;49.976;8.240;2023-05-23T01:50:31;99969.03;;;16.84;100.00
804;BME280;25687;49.976;8.240;2023-05-23T01:52:56;99977.91;;;16.81;100.00
804;BME280;25687;49.976;8.240;2023-05-23T01:55:24;99988.44;;;16.68;100.00
804;BME280;25687;49.976;8.240;2023-05-23T01:57:51;99983.31;;;16.57;100.00
804;BME280;25687;49.976;8.240;2023-05-23T02:00:17;99977.50;;;16.43;100.00
804;BME280;25687;49.976;8.240;2023-05-23T02:02:44;99975.63;;;16.34;100.00
804;BME280;25687;49.976;8.240;2023-05-23T02:05:09;99988.16;;;16.29;100.00
804;BME280;25687;49.976;8.240;2023-05-23T02:07:35;99982.63;;;16.22;100.00
804;BME280;25687;49.976;8.240;2023-05-23T02:10:00;99994.91;;;16.20;100.00
804;BME280;25687;49.976;8.240;2023-05-23T02:12:26;99994.78;;;16.22;100.00
804;BME280;25687;49.976;8.240;2023-05-23T02:14:53;99991.63;;;16.18;100.00
804;BME280;25687;49.976;8.240;2023-05-23T02:17:18;99994.25;;;16.07;100.00
804;BME280;25687;49.976;8.240;2023-05-23T02:19:46;99996.59;;;16.10;100.00
804;BME280;25687;49.976;8.240;2023-05-23T02:22:11;99997.56;;;16.09;100.00
804;BME280;25687;49.976;8.240;2023-05-23T02:24:36;100003.91;;;16.05;100.00
804;BME280;25687;49.976;8.240;2023-05-23T02:27:02;100001.28;;;16.16;100.00
804;BME280;25687;49.976;8.240;2023-05-23T02:29:27;100000.25;;;16.07;100.00
804;BME280;25687;49.976;8.240;2023-05-23T02:31:52;100004.50;;;16.08;100.00
804;BME280;25687;49.976;8.240;2023-05-23T02:34:18;100001.94;;;15.97;100.00
804;BME280;25687;49.976;8.240;2023-05-23T02:36:43;100004.88;;;15.92;100.00
804;BME280;25687;49.976;8.240;2023-05-23T02:39:08;100011.25;;;15.77;100.00
804;BME280;25687;49.976;8.240;2023-05-23T02:41:33;100015.50;;;15.67;100.00
804;BME280;25687;49.976;8.240;2023-05-23T02:43:59;100017.03;;;15.69;100.00
804;BME280;25687;49.976;8.240;2023-05-23T02:46:24;100022.81;;;15.73;100.00
804;BME280;25687;49.976;8.240;2023-05-23T02:48:50;100018.09;;;15.67;100.00
804;BME280;25687;49.976;8.240;2023-05-23T02:51:15;100021.50;;;15.67;100.00
804;BME280;25687;49.976;8.240;2023-05-23T02:53:40;100027.16;;;15.72;100.00
804;BME280;25687;49.976;8.240;2023-05-23T02:56:06;100029.41;;;15.77;100.00
804;BME280;25687;49.976;8.240;2023-05-23T02:58:33;100032.59;;;15.69;100.00
804;BME280;25687;49.976;8.240;2023-05-23T03:01:00;100030.94;;;15.68;100.00
804;BME280;25687;49.976;8.240;2023-05-23T03:03:26;100029.88;;;15.71;100.00
804;BME280;25687;49.976;8.240;2023-05-23T03:05:52;100030.81;;;15.70;100.00
804;BME280;25687;49.976;8.240;2023-05-23T03:08:18;100030.00;;;15.69;100.00
804;BME280;25687;49.976;8.240;2023-05-23T03:10:43;100031.53;;;15.60;100.00
804;BME280;25687;49.976;8.240;2023-05-23T03:13:08;100032.22;;;15.51;100.00
804;BME280;25687;49.976;8.240;2023-05-23T03:15:33;100045.31;;;15.38;100.00
804;BME280;25687;49.976;8.240;2023-05-23T03:17:59;100048.56;;;15.29;100.00
804;BME280;25687;49.976;8.240;2023-05-23T03:20:24;100054.06;;;15.13;100.00
804;BME280;25687;49.976;8.240;2023-05-23T03:22:49;100050.06;;;15.09;100.00
804;BME280;25687;49.976;8.240;2023-05-23T03:25:15;100047.00;;;15.04;100.00
804;BME280;25687;49.976;8.240;2023-05-23T03:27:40;100047.31;;;14.88;100.00
804;BME280;25687;49.976;8.240;2023-05-23T03:30:06;100050.94;;;14.85;100.00
804;BME280;25687;49.976;8.240;2023-05-23T03:32:32;100052.47;;;14.88;100.00
804;BME280;25687;49.976;8.240;2023-05-23T03:34:57;100054.75;;;14.92;100.00
804;BME280;25687;49.976;8.240;2023-05-23T03:37:22;100060.41;;;14.97;100.00
804;BME280;25687;49.976;8.240;2023-05-23T03:39:47;100064.41;;;15.01;100.00
804;BME280;25687;49.976;8.240;2023-05-23T03:42:13;100067.59;;;15.05;100.00
804;BME280;25687;49.976;8.240;2023-05-23T03:44:38;100066.56;;;15.19;100.00
804;BME280;25687;49.976;8.240;2023-05-23T03:47:03;100061.75;;;15.14;100.00
804;BME280;25687;49.976;8.240;2023-05-23T04:09:39;100073.13;;;15.59;100.00
804;BME280;25687;49.976;8.240;2023-05-23T04:12:04;100082.56;;;15.60;100.00
804;BME280;25687;49.976;8.240;2023-05-23T04:14:30;100079.16;;;15.71;100.00
804;BME280;25687;49.976;8.240;2023-05-23T04:16:57;100075.97;;;15.78;100.00
804;BME280;25687;49.976;8.240;2023-05-23T04:19:23;100074.69;;;15.84;100.00
804;BME280;25687;49.976;8.240;2023-05-23T04:21:48;100079.88;;;15.84;100.00
804;BME280;25687;49.976;8.240;2023-05-23T04:24:13;100080.09;;;15.70;100.00
804;BME280;25687;49.976;8.240;2023-05-23T04:26:38;100080.41;;;15.54;100.00
804;BME280;25687;49.976;8.240;2023-05-23T04:29:04;100085.13;;;15.48;100.00
804;BME280;25687;49.976;8.240;2023-05-23T04:31:30;100084.06;;;15.51;100.00
804;BME280;25687;49.976;8.240;2023-05-23T04:33:55;100095.63;;;15.58;100.00
804;BME280;25687;49.976;8.240;2023-05-23T04:36:21;100085.94;;;15.49;100.00
804;BME280;25687;49.976;8.240;2023-05-23T04:38:47;100083.59;;;15.46;100.00
804;BME280;25687;49.976;8.240;2023-05-23T04:41:13;100098.22;;;15.47;100.00
804;BME280;25687;49.976;8.240;2023-05-23T04:43:40;100102.94;;;15.42;100.00
804;BME280;25687;49.976;8.240;2023-05-23T04:46:07;100101.81;;;15.33;100.00
804;BME280;25687;49.976;8.240;2023-05-23T04:48:33;100108.66;;;15.34;100.00
804;BME280;25687;49.976;8.240;2023-05-23T04:51:00;100114.09;;;15.31;100.00
804;BME280;25687;49.976;8.240;2023-05-23T04:53:26;100111.63;;;15.41;100.00
804;BME280;25687;49.976;8.240;2023-05-23T04:55:51;100122.22;;;15.49;100.00
804;BME280;25687;49.976;8.240;2023-05-23T04:58:16;100124.44;;;15.31;100.00
804;BME280;25687;49.976;8.240;2023-05-23T05:00:42;100121.72;;;15.32;100.00
804;BME280;25687;49.976;8.240;2023-05-23T05:03:07;100127.25;;;15.28;100.00
804;BME280;25687;49.976;8.240;2023-05-23T05:05:34;100129.31;;;15.36;100.00
804;BME280;25687;49.976;8.240;2023-05-23T05:07:59;100121.31;;;15.50;100.00
804;BME280;25687;49.976;8.240;2023-05-23T05:10:24;100125.34;;;15.65;100.00
804;BME280;25687;49.976;8.240;2023-05-23T05:12:49;100127.16;;;15.88;100.00
804;BME280;25687;49.976;8.240;2023-05-23T05:15:15;100124.19;;;15.92;100.00
804;BME280;25687;49.976;8.240;2023-05-23T05:17:42;100136.34;;;15.92;100.00
804;BME280;25687;49.976;8.240;2023-05-23T05:20:07;100127.97;;;15.88;100.00
804;BME280;25687;49.976;8.240;2023-05-23T05:22:34;100125.28;;;16.12;100.00
804;BME280;25687;49.976;8.240;2023-05-23T05:25:00;100132.56;;;16.41;100.00
804;BME280;25687;49.976;8.240;2023-05-23T05:27:26;100137.69;;;16.64;100.00
804;BME280;25687;49.976;8.240;2023-05-23T05:29:52;100138.31;;;16.56;100.00
804;BME280;25687;49.976;8.240;2023-05-23T05:32:17;100150.44;;;16.56;100.00
804;BME280;25687;49.976;8.240;2023-05-23T05:34:43;100144.25;;;16.24;100.00
804;BME280;25687;49.976;8.240;2023-05-23T05:37:08;100144.13;;;16.49;100.00
804;BME280;25687;49.976;8.240;2023-05-23T05:39:33;100147.41;;;16.39;100.00
804;BME280;25687;49.976;8.240;2023-05-23T05:41:58;100153.44;;;16.51;100.00
804;BME280;25687;49.976;8.240;2023-05-23T05:44:25;100158.38;;;16.43;100.00
804;BME280;25687;49.976;8.240;2023-05-23T05:46:51;100162.41;;;16.24;100.00
804;BME280;25687;49.976;8.240;2023-05-23T05:49:16;100169.28;;;16.14;100.00
804;BME280;25687;49.976;8.240;2023-05-23T05:51:41;100169.75;;;16.08;100.00
804;BME280;25687;49.976;8.240;2023-05-23T05:54:06;100178.25;;;16.21;100.00
804;BME280;25687;49.976;8.240;2023-05-23T05:56:32;100178.34;;;16.20;100.00
804;BME280;25687;49.976;8.240;2023-05-23T05:58:57;100183.78;;;16.17;100.00
804;BME280;25687;49.976;8.240;2023-05-23T06:01:22;100182.72;;;15.96;100.00
804;BME280;25687;49.976;8.240;2023-05-23T06:03:49;100172.09;;;16.00;100.00
804;BME280;25687;49.976;8.240;2023-05-23T06:06:14;100181.63;;;16.33;100.00
804;BME280;25687;49.976;8.240;2023-05-23T06:08:40;100178.53;;;16.62;100.00
804;BME280;25687;49.976;8.240;2023-05-23T06:11:06;100179.75;;;16.90;100.00
804;BME280;25687;49.976;8.240;2023-05-23T06:13:31;100182.44;;;16.68;100.00
804;BME280;25687;49.976;8.240;2023-05-23T06:15:56;100192.81;;;16.68;100.00
804;BME280;25687;49.976;8.240;2023-05-23T06:18:22;100187.41;;;16.48;100.00
804;BME280;25687;49.976;8.240;2023-05-23T06:20:47;100192.59;;;16.48;100.00
804;BME280;25687;49.976;8.240;2023-05-23T06:23:13;100201.34;;;16.36;100.00
804;BME280;25687;49.976;8.240;2023-05-23T06:25:38;100190.84;;;16.26;100.00
804;BME280;25687;49.976;8.240;2023-05-23T06:28:03;100205.72;;;16.35;100.00
804;BME280;25687;49.976;8.240;2023-05-23T06:30:29;100207.00;;;16.41;100.00
804;BME280;25687;49.976;8.240;2023-05-23T06:32:54;100196.25;;;16.57;100.00
804;BME280;25687;49.976;8.240;2023-05-23T06:35:19;100208.28;;;16.58;100.00
804;BME280;25687;49.976;8.240;2023-05-23T06:37:44;100208.19;;;16.37;100.00
804;BME280;25687;49.976;8.240;2023-05-23T06:40:13;100203.00;;;16.37;100.00
804;BME280;25687;49.976;8.240;2023-05-23T06:42:39;100202.16;;;16.48;100.00
804;BME280;25687;49.976;8.240;2023-05-23T06:45:04;100198.53;;;16.27;100.00
804;BME280;25687;49.976;8.240;2023-05-23T06:47:30;100209.50;;;16.42;100.00
804;BME280;25687;49.976;8.240;2023-05-23T06:49:55;100207.59;;;16.44;100.00
804;BME280;25687;49.976;8.240;2023-05-23T06:52:20;100206.91;;;16.42;100.00
804;BME280;25687;49.976;8.240;2023-05-23T06:54:46;100216.81;;;16.49;100.00
804;BME280;25687;49.976;8.240;2023-05-23T06:57:11;100205.84;;;16.45;100.00
804;BME280;25687;49.976;8.240;2023-05-23T06:59:36;100209.00;;;16.60;100.00
804;BME280;25687;49.976;8.240;2023-05-23T07:02:01;100214.66;;;16.65;100.00
804;BME280;25687;49.976;8.240;2023-05-23T07:04:26;100220.91;;;16.62;100.00
804;BME280;25687;49.976;8.240;2023-05-23T07:06:52;100216.44;;;16.65;100.00
804;BME280;25687;49.976;8.240;2023-05-23T07:09:17;100220.47;;;16.57;100.00
804;BME280;25687;49.976;8.240;2023-05-23T07:11:42;100222.34;;;16.55;100.00
804;BME280;25687;49.976;8.240;2023-05-23T07:14:08;100221.75;;;16.52;100.00
804;BME280;25687;49.976;8.240;2023-05-23T07:16:33;100219.75;;;16.55;100.00
804;BME280;25687;49.976;8.240;2023-05-23T07:19:00;100223.00;;;16.80;100.00
804;BME280;25687;49.976;8.240;2023-05-23T07:21:25;100212.31;;;17.17;100.00
804;BME280;25687;49.976;8.240;2023-05-23T07:23:51;100205.56;;;17.89;100.00
804;BME280;25687;49.976;8.240;2023-05-23T07:26:16;100224.25;;;19.17;100.00
804;BME280;25687;49.976;8.240;2023-05-23T07:28:41;100228.50;;;20.24;100.00
804;BME280;25687;49.976;8.240;2023-05-23T07:31:06;100229.00;;;19.80;100.00
804;BME280;25687;49.976;8.240;2023-05-23T07:33:33;100218.72;;;20.82;100.00
804;BME280;25687;49.976;8.240;2023-05-23T07:35:58;100220.91;;;21.23;98.08
804;BME280;25687;49.976;8.240;2023-05-23T07:38:25;100216.59;;;22.88;90.05
804;BME280;25687;49.976;8.240;2023-05-23T07:40:50;100216.16;;;23.34;84.25
804;BME280;25687;49.976;8.240;2023-05-23T07:43:16;100216.16;;;23.67;79.82
804;BME280;25687;49.976;8.240;2023-05-23T07:45:41;100218.47;;;24.66;72.10
804;BME280;25687;49.976;8.240;2023-05-23T07:48:07;100220.75;;;26.22;63.82
804;BME280;25687;49.976;8.240;2023-05-23T07:50:32;100226.19;;;26.50;57.31
804;BME280;25687;49.976;8.240;2023-05-23T07:52:58;100222.13;;;25.11;64.46
804;BME280;25687;49.976;8.240;2023-05-23T07:55:23;100229.22;;;24.79;71.55
804;BME280;25687;49.976;8.240;2023-05-23T07:57:48;100233.75;;;25.17;66.85
804;BME280;25687;49.976;8.240;2023-05-23T08:00:14;100237.09;;;24.00;77.72
804;BME280;25687;49.976;8.240;2023-05-23T08:02:39;100234.31;;;22.94;83.63
804;BME280;25687;49.976;8.240;2023-05-23T08:05:05;100236.59;;;22.89;88.39
804;BME280;25687;49.976;8.240;2023-05-23T08:07:31;100229.91;;;23.69;79.00
804;BME280;25687;49.976;8.240;2023-05-23T08:09:56;100231.41;;;24.99;70.38
804;BME280;25687;49.976;8.240;2023-05-23T08:12:21;100238.44;;;25.53;57.84
804;BME280;25687;49.976;8.240;2023-05-23T08:14:46;100246.00;;;26.61;57.88
804;BME280;25687;49.976;8.240;2023-05-23T08:17:12;100241.78;;;27.03;51.74
804;BME280;25687;49.976;8.240;2023-05-23T08:19:37;100261.09;;;28.04;48.65
804;BME280;25687;49.976;8.240;2023-05-23T08:22:03;100260.16;;;27.90;48.56
804;BME280;25687;49.976;8.240;2023-05-23T08:24:29;100257.44;;;26.83;50.56
804;BME280;25687;49.976;8.240;2023-05-23T08:26:54;100256.69;;;26.89;48.60
804;BME280;25687;49.976;8.240;2023-05-23T08:29:20;100258.31;;;25.33;58.89
804;BME280;25687;49.976;8.240;2023-05-23T08:31:46;100261.13;;;24.85;67.61
804;BME280;25687;49.976;8.240;2023-05-23T08:34:11;100261.84;;;24.22;73.63
804;BME280;25687;49.976;8.240;2023-05-23T08:36:38;100255.06;;;22.63;85.13
804;BME280;25687;49.976;8.240;2023-05-23T08:39:04;100251.56;;;22.28;88.84
804;BME280;25687;49.976;8.240;2023-05-23T08:41:29;100251.75;;;21.55;92.86
804;BME280;25687;49.976;8.240;2023-05-23T08:43:56;100262.53;;;21.52;94.46
804;BME280;25687;49.976;8.240;2023-05-23T08:46:21;100259.84;;;21.08;93.90
804;BME280;25687;49.976;8.240;2023-05-23T08:48:51;100254.53;;;21.00;93.62
804;BME280;25687;49.976;8.240;2023-05-23T08:51:17;100258.19;;;20.89;95.02
804;BME280;25687;49.976;8.240;2023-05-23T08:53:44;100266.50;;;21.74;94.37
804;BME280;25687;49.976;8.240;2023-05-23T08:56:14;100257.00;;;21.55;93.07
804;BME280;25687;49.976;8.240;2023-05-23T08:58:41;100258.81;;;21.55;91.93
804;BME280;25687;49.976;8.240;2023-05-23T09:01:07;100253.50;;;21.28;92.96
804;BME280;25687;49.976;8.240;2023-05-23T09:03:34;100265.41;;;21.41;94.25
804;BME280;25687;49.976;8.240;2023-05-23T09:06:02;100263.97;;;21.47;92.22
804;BME280;25687;49.976;8.240;2023-05-23T09:08:27;100263.97;;;21.10;92.93
804;BME280;25687;49.976;8.240;2023-05-23T09:10:53;100264.25;;;20.14;100.00
804;BME280;25687;49.976;8.240;2023-05-23T09:13:19;100274.63;;;19.57;100.00
804;BME280;25687;49.976;8.240;2023-05-23T09:16:05;100272.00;;;19.57;100.00
804;BME280;25687;49.976;8.240;2023-05-23T09:18:39;100271.47;;;19.43;100.00
804;BME280;25687;49.976;8.240;2023-05-23T09:21:07;100276.81;;;19.42;100.00
804;BME280;25687;49.976;8.240;2023-05-23T09:23:33;100280.66;;;19.28;100.00
804;BME280;25687;49.976;8.240;2023-05-23T09:26:09;100273.22;;;19.03;100.00
804;BME280;25687;49.976;8.240;2023-05-23T09:28:37;100273.06;;;18.95;100.00
804;BME280;25687;49.976;8.240;2023-05-23T09:31:07;100277.66;;;19.23;100.00
804;BME280;25687;49.976;8.240;2023-05-23T09:33:44;100281.47;;;19.28;100.00
804;BME280;25687;49.976;8.240;2023-05-23T09:36:11;100277.09;;;19.29;100.00
804;BME280;25687;49.976;8.240;2023-05-23T09:38:37;100274.47;;;19.48;100.00
804;BME280;25687;49.976;8.240;2023-05-23T09:41:03;100272.03;;;19.86;100.00
804;BME280;25687;49.976;8.240;2023-05-23T09:43:28;100276.16;;;20.36;100.00
804;BME280;25687;49.976;8.240;2023-05-23T09:45:54;100267.72;;;20.42;98.77
804;BME280;25687;49.976;8.240;2023-05-23T09:48:28;100282.03;;;19.71;100.00
804;BME280;25687;49.976;8.240;2023-05-23T09:50:54;100277.34;;;20.04;100.00
804;BME280;25687;49.976;8.240;2023-05-23T09:53:20;100272.94;;;20.14;97.90
804;BME280;25687;49.976;8.240;2023-05-23T09:55:52;100274.81;;;20.22;99.66
804;BME280;25687;49.976;8.240;2023-05-23T09:58:19;100273.41;;;20.28;97.12
804;BME280;25687;49.976;8.240;2023-05-23T10:00:49;100272.16;;;20.42;97.52
804;BME280;25687;49.976;8.240;2023-05-23T10:03:21;100282.78;;;20.58;97.55
804;BME280;25687;49.976;8.240;2023-05-23T10:05:50;100274.78;;;20.32;97.69
804;BME280;25687;49.976;8.240;2023-05-23T10:08:36;100280.34;;;21.12;94.84
804;BME280;25687;49.976;8.240;2023-05-23T10:13:58;100274.03;;;22.56;87.15
804;BME280;25687;49.976;8.240;2023-05-23T10:16:39;100274.72;;;22.06;86.07
804;BME280;25687;49.976;8.240;2023-05-23T10:19:24;100274.34;;;21.20;91.21
804;BME280;25687;49.976;8.240;2023-05-23T10:21:58;100287.13;;;20.68;94.24
804;BME280;25687;49.976;8.240;2023-05-23T10:24:25;100288.16;;;20.09;99.21
804;BME280;25687;49.976;8.240;2023-05-23T10:26:52;100295.22;;;19.40;100.00
804;BME280;25687;49.976;8.240;2023-05-23T10:29:19;100301.56;;;19.47;100.00
804;BME280;25687;49.976;8.240;2023-05-23T10:31:45;100299.88;;;19.27;100.00
804;BME280;25687;49.976;8.240;2023-05-23T10:34:28;100309.25;;;19.78;100.00
804;BME280;25687;49.976;8.240;2023-05-23T10:37:00;100311.00;;;19.78;100.00
804;BME280;25687;49.976;8.240;2023-05-23T10:42:14;100308.19;;;20.38;100.00
804;BME280;25687;49.976;8.240;2023-05-23T10:44:41;100308.41;;;20.55;99.41
804;BME280;25687;49.976;8.240;2023-05-23T10:47:06;100303.56;;;21.16;97.60
804;BME280;25687;49.976;8.240;2023-05-23T10:49:40;100292.22;;;21.43;94.32
804;BME280;25687;49.976;8.240;2023-05-23T10:52:06;100308.41;;;21.56;93.84
804;BME280;25687;49.976;8.240;2023-05-23T10:54:41;100303.81;;;21.40;93.47
804;BME280;25687;49.976;8.240;2023-05-23T10:57:09;100304.03;;;20.83;96.63
804;BME280;25687;49.976;8.240;2023-05-23T10:59:36;100307.25;;;20.67;100.00
804;BME280;25687;49.976;8.240;2023-05-23T11:02:02;100319.97;;;19.85;100.00
804;BME280;25687;49.976;8.240;2023-05-23T11:04:31;100316.09;;;19.50;100.00
804;BME280;25687;49.976;8.240;2023-05-23T11:06:57;100321.16;;;19.32;100.00
804;BME280;25687;49.976;8.240;2023-05-23T11:09:22;100320.34;;;19.31;100.00
804;BME280;25687;49.976;8.240;2023-05-23T11:14:50;100313.03;;;19.15;100.00
804;BME280;25687;49.976;8.240;2023-05-23T11:17:17;100316.09;;;18.90;100.00
804;BME280;25687;49.976;8.240;2023-05-23T11:19:58;100308.66;;;19.35;100.00
804;BME280;25687;49.976;8.240;2023-05-23T11:22:27;100318.06;;;19.87;100.00
804;BME280;25687;49.976;8.240;2023-05-23T11:24:55;100320.88;;;20.23;100.00
804;BME280;25687;49.976;8.240;2023-05-23T11:30:09;100317.19;;;21.37;96.08
804;BME280;25687;49.976;8.240;2023-05-23T11:32:37;100317.03;;;20.55;99.95
804;BME280;25687;49.976;8.240;2023-05-23T11:35:12;100318.84;;;20.07;100.00
804;BME280;25687;49.976;8.240;2023-05-23T11:37:38;100318.16;;;19.66;100.00
804;BME280;25687;49.976;8.240;2023-05-23T11:40:32;100330.41;;;19.85;100.00
804;BME280;25687;49.976;8.240;2023-05-23T11:42:59;100322.84;;;19.92;100.00
804;BME280;25687;49.976;8.240;2023-05-23T11:45:26;100326.97;;;19.84;100.00
804;BME280;25687;49.976;8.240;2023-05-23T11:47:51;100328.50;;;20.44;100.00
804;BME280;25687;49.976;8.240;2023-05-23T11:50:17;100326.72;;;20.45;100.00
804;BME280;25687;49.976;8.240;2023-05-23T11:52:44;100330.66;;;20.59;100.00
804;BME280;25687;49.976;8.240;2023-05-23T11:55:16;100328.00;;;21.06;100.00
804;BME280;25687;49.976;8.240;2023-05-23T11:57:42;100333.81;;;21.00;98.71
804;BME280;25687;49.976;8.240;2023-05-23T12:00:08;100333.88;;;20.90;100.00
804;BME280;25687;49.976;8.240;2023-05-23T12:02:38;100345.25;;;20.99;100.00
804;BME280;25687;49.976;8.240;2023-05-23T12:05:13;100343.00;;;20.76;100.00
804;BME280;25687;49.976;8.240;2023-05-23T12:07:45;100343.88;;;20.47;100.00
804;BME280;25687;49.976;8.240;2023-05-23T12:10:12;100348.09;;;19.81;100.00
804;BME280;25687;49.976;8.240;2023-05-23T12:12:40;100338.47;;;19.52;100.00
804;BME280;25687;49.976;8.240;2023-05-23T12:15:07;100337.78;;;19.50;100.00
804;BME280;25687;49.976;8.240;2023-05-23T12:17:32;100342.19;;;19.70;100.00
804;BME280;25687;49.976;8.240;2023-05-23T12:19:58;100340.53;;;19.49;100.00
804;BME280;25687;49.976;8.240;2023-05-23T12:22:24;100335.16;;;19.31;100.00
804;BME280;25687;49.976;8.240;2023-05-23T12:24:53;100341.91;;;19.53;100.00
804;BME280;25687;49.976;8.240;2023-05-23T12:27:26;100342.88;;;19.52;100.00
804;BME280;25687;49.976;8.240;2023-05-23T12:30:03;100344.13;;;19.77;100.00
804;BME280;25687;49.976;8.240;2023-05-23T12:32:29;100341.38;;;19.69;100.00
804;BME280;25687;49.976;8.240;2023-05-23T12:34:54;100331.47;;;19.53;100.00
804;BME280;25687;49.976;8.240;2023-05-23T12:37:20;100336.06;;;19.00;100.00
804;BME280;25687;49.976;8.240;2023-05-23T12:39:46;100323.69;;;18.71;100.00
804;BME280;25687;49.976;8.240;2023-05-23T12:42:11;100332.88;;;18.97;100.00
804;BME280;25687;49.976;8.240;2023-05-23T12:44:40;100342.53;;;19.16;100.00
804;BME280;25687;49.976;8.240;2023-05-23T12:47:05;100337.47;;;19.24;100.00
804;BME280;25687;49.976;8.240;2023-05-23T12:49:30;100333.50;;;19.40;100.00
804;BME280;25687;49.976;8.240;2023-05-23T12:51:56;100341.94;;;19.02;100.00
804;BME280;25687;49.976;8.240;2023-05-23T12:54:21;100341.88;;;19.33;100.00
804;BME280;25687;49.976;8.240;2023-05-23T12:56:46;100353.59;;;19.68;100.00
804;BME280;25687;49.976;8.240;2023-05-23T12:59:12;100348.09;;;19.62;100.00
804;BME280;25687;49.976;8.240;2023-05-23T13:01:37;100342.59;;;19.55;100.00
804;BME280;25687;49.976;8.240;2023-05-23T13:04:02;100349.88;;;19.51;100.00
804;BME280;25687;49.976;8.240;2023-05-23T13:06:28;100343.94;;;19.40;100.00
804;BME280;25687;49.976;8.240;2023-05-23T13:08:53;100342.56;;;19.35;100.00
804;BME280;25687;49.976;8.240;2023-05-23T13:11:20;100335.25;;;19.19;100.00
804;BME280;25687;49.976;8.240;2023-05-23T13:13:46;100348.78;;;18.94;100.00
804;BME280;25687;49.976;8.240;2023-05-23T13:16:12;100348.38;;;18.98;100.00
804;BME280;25687;49.976;8.240;2023-05-23T13:18:37;100343.56;;;18.94;100.00
804;BME280;25687;49.976;8.240;2023-05-23T13:21:03;100344.66;;;18.91;100.00
804;BME280;25687;49.976;8.240;2023-05-23T13:23:28;100341.78;;;18.94;100.00
804;BME280;25687;49.976;8.240;2023-05-23T13:25:54;100344.44;;;18.73;100.00
804;BME280;25687;49.976;8.240;2023-05-23T13:28:21;100346.00;;;18.85;100.00
804;BME280;25687;49.976;8.240;2023-05-23T13:30:47;100349.09;;;19.00;100.00
804;BME280;25687;49.976;8.240;2023-05-23T13:33:12;100343.75;;;19.12;100.00
804;BME280;25687;49.976;8.240;2023-05-23T13:35:37;100340.47;;;19.19;100.00
804;BME280;25687;49.976;8.240;2023-05-23T13:38:03;100350.66;;;19.32;100.00